sensor_id;sensor_type;location;lat;lon;timestamp;pressure;altitude;pressure_sealevel;temperature;humidity
75146;BME280;63641;46.526;24.612;2023-04-03T00:00:52;96647.56;;;8.27;76.06
75146;BME280;63641;46.526;24.612;2023-04-03T00:03:19;96635.97;;;8.26;76.12
75146;BME280;63641;46.526;24.612;2023-04-03T00:05:46;96635.44;;;8.24;75.83
75146;BME280;63641;46.526;24.612;2023-04-03T00:08:13;96642.97;;;8.27;75.96
75146;BME280;63641;46.526;24.612;2023-04-03T00:10:41;96642.97;;;8.27;76.21
75146;BME280;63641;46.526;24.612;2023-04-03T00:13:08;96635.19;;;8.26;76.07
75146;BME280;63641;46.526;24.612;2023-04-03T00:15:35;96637.56;;;8.27;75.99
75146;BME280;63641;46.526;24.612;2023-04-03T00:18:03;96638.69;;;8.26;76.15
75146;BME280;63641;46.526;24.612;2023-04-03T00:20:30;96640.56;;;8.26;76.06
75146;BME280;63641;46.526;24.612;2023-04-03T00:22:57;96633.84;;;8.23;76.10
75146;BME280;63641;46.526;24.612;2023-04-03T00:25:24;96626.88;;;8.17;76.09
75146;BME280;63641;46.526;24.612;2023-04-03T00:27:51;96633.31;;;8.21;76.26
75146;BME280;63641;46.526;24.612;2023-04-03T00:30:19;96640.56;;;8.26;76.31
75146;BME280;63641;46.526;24.612;2023-04-03T00:32:50;96640.28;;;8.27;76.14
75146;BME280;63641;46.526;24.612;2023-04-03T00:35:19;96634.38;;;8.25;76.11
75146;BME280;63641;46.526;24.612;2023-04-03T00:37:47;96644.06;;;8.26;76.24
75146;BME280;63641;46.526;24.612;2023-04-03T00:40:15;96645.97;;;8.26;76.24
75146;BME280;63641;46.526;24.612;2023-04-03T00:42:44;96638.69;;;8.21;76.23
75146;BME280;63641;46.526;24.612;2023-04-03T00:47:39;96633.66;;;8.14;76.27
75146;BME280;63641;46.526;24.612;2023-04-03T00:50:07;96643.34;;;8.15;76.32
75146;BME280;63641;46.526;24.612;2023-04-03T00:52:35;96640.41;;;8.12;76.53
75146;BME280;63641;46.526;24.612;2023-04-03T00:55:07;96633.41;;;8.11;76.61
75146;BME280;63641;46.526;24.612;2023-04-03T00:57:35;96635.06;;;8.07;76.58
75146;BME280;63641;46.526;24.612;2023-04-03T01:00:08;96641.50;;;8.11;76.52
75146;BME280;63641;46.526;24.612;2023-04-03T01:02:36;96640.41;;;8.12;76.62
75146;BME280;63641;46.526;24.612;2023-04-03T01:05:04;96637.72;;;8.12;76.66
75146;BME280;63641;46.526;24.612;2023-04-03T01:07:31;96642.81;;;8.13;76.50
75146;BME280;63641;46.526;24.612;2023-04-03T01:10:03;96649.03;;;8.14;76.62
75146;BME280;63641;46.526;24.612;2023-04-03T01:12:38;96649.81;;;8.14;76.55
75146;BME280;63641;46.526;24.612;2023-04-03T01:15:15;96645.50;;;8.13;76.45
75146;BME280;63641;46.526;24.612;2023-04-03T01:17:44;96648.72;;;8.15;76.62
75146;BME280;63641;46.526;24.612;2023-04-03T01:22:52;96644.69;;;8.13;76.68
75146;BME280;63641;46.526;24.612;2023-04-03T01:25:23;96647.09;;;8.19;76.55
75146;BME280;63641;46.526;24.612;2023-04-03T01:27:50;96637.66;;;8.17;76.52
75146;BME280;63641;46.526;24.612;2023-04-03T01:30:18;96648.41;;;8.22;76.62
75146;BME280;63641;46.526;24.612;2023-04-03T01:32:45;96643.81;;;8.22;76.50
75146;BME280;63641;46.526;24.612;2023-04-03T01:35:12;96647.63;;;8.21;76.64
75146;BME280;63641;46.526;24.612;2023-04-03T01:37:39;96649.47;;;8.21;76.70
75146;BME280;63641;46.526;24.612;2023-04-03T01:40:06;96640.59;;;8.20;76.67
75146;BME280;63641;46.526;24.612;2023-04-03T01:42:33;96650.06;;;8.18;76.53
75146;BME280;63641;46.526;24.612;2023-04-03T01:45:00;96651.09;;;8.22;76.76
75146;BME280;63641;46.526;24.612;2023-04-03T01:47:27;96654.31;;;8.24;76.70
75146;BME280;63641;46.526;24.612;2023-04-03T01:49:54;96655.94;;;8.25;76.69
75146;BME280;63641;46.526;24.612;2023-04-03T01:52:21;96661.34;;;8.25;76.83
75146;BME280;63641;46.526;24.612;2023-04-03T01:54:47;96664.03;;;8.25;76.65
75146;BME280;63641;46.526;24.612;2023-04-03T01:57:14;96656.50;;;8.22;76.73
75146;BME280;63641;46.526;24.612;2023-04-03T01:59:41;96653.81;;;8.22;76.96
75146;BME280;63641;46.526;24.612;2023-04-03T02:02:08;96652.94;;;8.27;76.74
75146;BME280;63641;46.526;24.612;2023-04-03T02:04:35;96658.34;;;8.27;76.82
75146;BME280;63641;46.526;24.612;2023-04-03T02:07:01;96662.94;;;8.26;76.87
75146;BME280;63641;46.526;24.612;2023-04-03T02:09:28;96658.34;;;8.27;76.79
75146;BME280;63641;46.526;24.612;2023-04-03T02:11:55;96660.75;;;8.28;76.85
75146;BME280;63641;46.526;24.612;2023-04-03T02:14:21;96660.75;;;8.28;76.96
75146;BME280;63641;46.526;24.612;2023-04-03T02:16:50;96662.38;;;8.29;76.85
75146;BME280;63641;46.526;24.612;2023-04-03T02:19:16;96663.97;;;8.30;76.83
75146;BME280;63641;46.526;24.612;2023-04-03T02:21:43;96658.59;;;8.30;76.83
75146;BME280;63641;46.526;24.612;2023-04-03T02:24:10;96658.59;;;8.30;76.96
75146;BME280;63641;46.526;24.612;2023-04-03T02:26:37;96660.97;;;8.32;76.95
75146;BME280;63641;46.526;24.612;2023-04-03T02:29:03;96662.38;;;8.29;76.92
75146;BME280;63641;46.526;24.612;2023-04-03T02:31:30;96657.50;;;8.31;76.99
75146;BME280;63641;46.526;24.612;2023-04-03T02:33:57;96655.66;;;8.27;76.91
75146;BME280;63641;46.526;24.612;2023-04-03T02:36:24;96659.69;;;8.29;77.01
75146;BME280;63641;46.526;24.612;2023-04-03T02:38:51;96657.53;;;8.26;76.92
75146;BME280;63641;46.526;24.612;2023-04-03T02:41:17;96657.00;;;8.24;77.02
75146;BME280;63641;46.526;24.612;2023-04-03T02:43:44;96660.78;;;8.23;77.10
75146;BME280;63641;46.526;24.612;2023-04-03T02:46:11;96651.66;;;8.19;77.25
75146;BME280;63641;46.526;24.612;2023-04-03T02:48:38;96665.09;;;8.24;77.13
75146;BME280;63641;46.526;24.612;2023-04-03T02:51:05;96661.88;;;8.22;77.23
75146;BME280;63641;46.526;24.612;2023-04-03T02:53:31;96668.88;;;8.23;77.19
75146;BME280;63641;46.526;24.612;2023-04-03T02:55:59;96674.50;;;8.27;77.21
75146;BME280;63641;46.526;24.612;2023-04-03T02:58:25;96673.41;;;8.28;77.24
75146;BME280;63641;46.526;24.612;2023-04-03T03:00:53;96675.06;;;8.29;77.28
75146;BME280;63641;46.526;24.612;2023-04-03T03:03:20;96677.44;;;8.30;77.13
75146;BME280;63641;46.526;24.612;2023-04-03T03:05:47;96670.47;;;8.29;77.14
75146;BME280;63641;46.526;24.612;2023-04-03T03:08:14;96674.19;;;8.33;77.09
75146;BME280;63641;46.526;24.612;2023-04-03T03:10:41;96672.00;;;8.35;77.22
75146;BME280;63641;46.526;24.612;2023-04-03T03:13:08;96671.75;;;8.37;77.22
75146;BME280;63641;46.526;24.612;2023-04-03T03:15:34;96670.69;;;8.38;77.32
75146;BME280;63641;46.526;24.612;2023-04-03T03:18:02;96666.63;;;8.35;77.19
75146;BME280;63641;46.526;24.612;2023-04-03T03:20:29;96666.63;;;8.35;77.14
75146;BME280;63641;46.526;24.612;2023-04-03T03:22:55;96661.81;;;8.32;77.22
75146;BME280;63641;46.526;24.612;2023-04-03T03:25:22;96672.00;;;8.35;77.19
75146;BME280;63641;46.526;24.612;2023-04-03T03:27:50;96672.84;;;8.36;77.17
75146;BME280;63641;46.526;24.612;2023-04-03T03:30:17;96675.53;;;8.36;77.23
75146;BME280;63641;46.526;24.612;2023-04-03T03:32:44;96683.63;;;8.36;77.28
75146;BME280;63641;46.526;24.612;2023-04-03T03:35:11;96685.22;;;8.37;77.37
75146;BME280;63641;46.526;24.612;2023-04-03T03:37:38;96686.03;;;8.37;77.29
75146;BME280;63641;46.526;24.612;2023-04-03T03:40:05;96684.41;;;8.36;77.23
75146;BME280;63641;46.526;24.612;2023-04-03T03:42:32;96685.22;;;8.37;77.36
75146;BME280;63641;46.526;24.612;2023-04-03T03:44:59;96694.66;;;8.34;77.27
75146;BME280;63641;46.526;24.612;2023-04-03T03:47:26;96686.03;;;8.37;77.41
75146;BME280;63641;46.526;24.612;2023-04-03T03:49:53;96692.25;;;8.38;77.26
75146;BME280;63641;46.526;24.612;2023-04-03T03:52:19;96696.53;;;8.39;77.40
75146;BME280;63641;46.526;24.612;2023-04-03T03:54:46;96691.69;;;8.41;77.24
75146;BME280;63641;46.526;24.612;2023-04-03T03:57:13;96693.56;;;8.40;77.02
75146;BME280;63641;46.526;24.612;2023-04-03T03:59:40;96694.63;;;8.44;77.32
75146;BME280;63641;46.526;24.612;2023-04-03T04:02:08;96697.31;;;8.44;77.18
75146;BME280;63641;46.526;24.612;2023-04-03T04:04:35;96689.22;;;8.44;77.25
75146;BME280;63641;46.526;24.612;2023-04-03T04:07:02;96691.13;;;8.44;77.37
75146;BME280;63641;46.526;24.612;2023-04-03T04:09:29;96697.06;;;8.41;77.39
75146;BME280;63641;46.526;24.612;2023-04-03T04:11:56;96694.63;;;8.39;77.42
75146;BME280;63641;46.526;24.612;2023-04-03T04:14:23;96693.28;;;8.42;77.33
75146;BME280;63641;46.526;24.612;2023-04-03T04:16:50;96698.66;;;8.42;77.35
75146;BME280;63641;46.526;24.612;2023-04-03T04:19:17;96694.63;;;8.44;77.32
75146;BME280;63641;46.526;24.612;2023-04-03T04:21:44;96701.59;;;8.45;77.38
75146;BME280;63641;46.526;24.612;2023-04-03T04:24:10;96698.66;;;8.47;77.22
75146;BME280;63641;46.526;24.612;2023-04-03T04:26:37;96702.16;;;8.48;77.20
75146;BME280;63641;46.526;24.612;2023-04-03T04:29:04;96702.16;;;8.48;77.37
75146;BME280;63641;46.526;24.612;2023-04-03T04:31:31;96706.97;;;8.51;77.33
75146;BME280;63641;46.526;24.612;2023-04-03T04:33:58;96709.66;;;8.51;77.48
75146;BME280;63641;46.526;24.612;2023-04-03T04:36:26;96698.91;;;8.45;77.21
75146;BME280;63641;46.526;24.612;2023-04-03T04:38:53;96706.69;;;8.52;77.30
75146;BME280;63641;46.526;24.612;2023-04-03T04:41:20;96694.31;;;8.46;77.51
75146;BME280;63641;46.526;24.612;2023-04-03T04:43:49;96703.44;;;8.50;77.54
75146;BME280;63641;46.526;24.612;2023-04-03T04:46:16;96699.44;;;8.48;77.49
75146;BME280;63641;46.526;24.612;2023-04-03T04:48:44;96704.53;;;8.49;77.48
75146;BME280;63641;46.526;24.612;2023-04-03T04:51:11;96698.34;;;8.49;77.53
75146;BME280;63641;46.526;24.612;2023-04-03T04:53:38;96689.22;;;8.44;77.32
75146;BME280;63641;46.526;24.612;2023-04-03T04:56:05;96688.97;;;8.41;77.28
75146;BME280;63641;46.526;24.612;2023-04-03T04:58:32;96697.88;;;8.41;77.52
75146;BME280;63641;46.526;24.612;2023-04-03T05:01:03;96693.56;;;8.35;77.58
75146;BME280;63641;46.526;24.612;2023-04-03T05:03:31;96701.66;;;8.35;77.53
75146;BME280;63641;46.526;24.612;2023-04-03T05:05:58;96713.53;;;8.34;77.46
75146;BME280;63641;46.526;24.612;2023-04-03T05:08:25;96709.25;;;8.28;77.45
75146;BME280;63641;46.526;24.612;2023-04-03T05:10:52;96713.03;;;8.27;77.48
75146;BME280;63641;46.526;24.612;2023-04-03T05:13:21;96713.94;;;8.17;77.37
75146;BME280;63641;46.526;24.612;2023-04-03T05:15:48;96723.66;;;8.13;77.30
75146;BME280;63641;46.526;24.612;2023-04-03T05:18:15;96719.66;;;8.06;77.19
75146;BME280;63641;46.526;24.612;2023-04-03T05:20:42;96719.69;;;8.01;77.24
75146;BME280;63641;46.526;24.612;2023-04-03T05:23:12;96711.72;;;7.85;77.06
75146;BME280;63641;46.526;24.612;2023-04-03T05:25:39;96730.53;;;7.95;77.14
75146;BME280;63641;46.526;24.612;2023-04-03T05:28:06;96733.72;;;7.97;76.95
75146;BME280;63641;46.526;24.612;2023-04-03T05:30:33;96723.50;;;7.94;76.78
75146;BME280;63641;46.526;24.612;2023-04-03T05:33:00;96738.84;;;7.99;76.61
75146;BME280;63641;46.526;24.612;2023-04-03T05:35:26;96735.31;;;7.98;76.51
75146;BME280;63641;46.526;24.612;2023-04-03T05:37:53;96736.41;;;7.97;76.51
75146;BME280;63641;46.526;24.612;2023-04-03T05:40:21;96735.63;;;7.97;76.45
75146;BME280;63641;46.526;24.612;2023-04-03T05:42:47;96738.63;;;7.90;76.54
75146;BME280;63641;46.526;24.612;2023-04-03T05:45:14;96727.88;;;7.85;76.50
75146;BME280;63641;46.526;24.612;2023-04-03T05:47:41;96733.28;;;7.85;76.41
75146;BME280;63641;46.526;24.612;2023-04-03T05:50:08;96724.41;;;7.80;76.49
75146;BME280;63641;46.526;24.612;2023-04-03T05:52:38;96738.66;;;7.80;76.47
75146;BME280;63641;46.526;24.612;2023-04-03T05:55:07;96730.91;;;7.73;76.44
75146;BME280;63641;46.526;24.612;2023-04-03T05:57:33;96730.63;;;7.75;76.36
75146;BME280;63641;46.526;24.612;2023-04-03T06:00:00;96738.69;;;7.75;76.38
75146;BME280;63641;46.526;24.612;2023-04-03T06:02:27;96734.97;;;7.71;76.64
75146;BME280;63641;46.526;24.612;2023-04-03T06:04:54;96728.22;;;7.68;76.05
75146;BME280;63641;46.526;24.612;2023-04-03T06:07:23;96729.56;;;7.71;76.35
75146;BME280;63641;46.526;24.612;2023-04-03T06:09:50;96727.44;;;7.68;76.41
75146;BME280;63641;46.526;24.612;2023-04-03T06:12:20;96724.72;;;7.68;76.42
75146;BME280;63641;46.526;24.612;2023-04-03T06:14:48;96729.03;;;7.69;76.39
75146;BME280;63641;46.526;24.612;2023-04-03T06:17:15;96727.63;;;7.77;76.28
75146;BME280;63641;46.526;24.612;2023-04-03T06:19:44;96733.03;;;7.77;76.13
75146;BME280;63641;46.526;24.612;2023-04-03T06:22:12;96741.91;;;7.82;75.94
75146;BME280;63641;46.526;24.612;2023-04-03T06:24:39;96732.72;;;7.83;75.89
75146;BME280;63641;46.526;24.612;2023-04-03T06:27:06;96746.19;;;7.83;75.75
75146;BME280;63641;46.526;24.612;2023-04-03T06:29:33;96739.50;;;7.81;75.70
75146;BME280;63641;46.526;24.612;2023-04-03T06:32:00;96748.63;;;7.85;75.76
75146;BME280;63641;46.526;24.612;2023-04-03T06:34:26;96744.59;;;7.82;75.62
75146;BME280;63641;46.526;24.612;2023-04-03T06:36:54;96752.66;;;7.82;75.85
75146;BME280;63641;46.526;24.612;2023-04-03T06:39:21;96767.19;;;7.86;75.78
75146;BME280;63641;46.526;24.612;2023-04-03T06:41:51;96768.28;;;7.85;75.68
75146;BME280;63641;46.526;24.612;2023-04-03T06:44:18;96768.00;;;7.87;75.66
75146;BME280;63641;46.526;24.612;2023-04-03T06:46:45;96773.38;;;7.87;75.57
75146;BME280;63641;46.526;24.612;2023-04-03T06:49:13;96783.34;;;7.86;75.48
75146;BME280;63641;46.526;24.612;2023-04-03T06:51:40;96779.84;;;7.86;75.55
75146;BME280;63641;46.526;24.612;2023-04-03T06:54:07;96778.00;;;7.81;75.52
75146;BME280;63641;46.526;24.612;2023-04-03T06:56:35;96784.69;;;7.89;75.41
75146;BME280;63641;46.526;24.612;2023-04-03T06:59:02;96783.91;;;7.88;75.13
75146;BME280;63641;46.526;24.612;2023-04-03T07:01:29;96791.16;;;7.88;75.33
75146;BME280;63641;46.526;24.612;2023-04-03T07:03:56;96792.53;;;7.85;75.21
75146;BME280;63641;46.526;24.612;2023-04-03T07:06:24;96785.53;;;7.84;75.14
75146;BME280;63641;46.526;24.612;2023-04-03T07:08:54;96798.97;;;7.89;75.17
75146;BME280;63641;46.526;24.612;2023-04-03T07:11:21;96790.59;;;7.91;75.10
75146;BME280;63641;46.526;24.612;2023-04-03T07:13:49;96796.25;;;7.94;75.01
75146;BME280;63641;46.526;24.612;2023-04-03T07:16:16;96793.84;;;7.93;75.04
75146;BME280;63641;46.526;24.612;2023-04-03T07:18:44;96798.41;;;7.92;75.05
75146;BME280;63641;46.526;24.612;2023-04-03T07:21:11;96809.69;;;7.99;74.88
75146;BME280;63641;46.526;24.612;2023-04-03T07:23:38;96803.78;;;7.97;75.06
75146;BME280;63641;46.526;24.612;2023-04-03T07:26:05;96799.47;;;7.96;74.96
75146;BME280;63641;46.526;24.612;2023-04-03T07:28:33;96808.66;;;7.95;74.84
75146;BME280;63641;46.526;24.612;2023-04-03T07:31:05;96815.91;;;7.95;74.87
75146;BME280;63641;46.526;24.612;2023-04-03T07:33:35;96808.94;;;7.89;74.99
75146;BME280;63641;46.526;24.612;2023-04-03T07:36:03;96814.06;;;7.85;75.05
75146;BME280;63641;46.526;24.612;2023-04-03T07:38:29;96806.03;;;7.75;75.28
75146;BME280;63641;46.526;24.612;2023-04-03T07:40:56;96820.56;;;7.79;75.29
75146;BME280;63641;46.526;24.612;2023-04-03T07:43:23;96814.63;;;7.82;75.29
75146;BME280;63641;46.526;24.612;2023-04-03T07:45:51;96813.28;;;7.85;75.29
75146;BME280;63641;46.526;24.612;2023-04-03T07:48:20;96822.91;;;7.91;75.04
75146;BME280;63641;46.526;24.612;2023-04-03T07:50:48;96823.44;;;7.98;74.83
75146;BME280;63641;46.526;24.612;2023-04-03T07:53:15;96828.81;;;7.98;74.82
75146;BME280;63641;46.526;24.612;2023-04-03T07:55:42;96830.13;;;8.06;74.58
75146;BME280;63641;46.526;24.612;2023-04-03T07:58:15;96839.25;;;8.10;74.48
75146;BME280;63641;46.526;24.612;2023-04-03T08:00:42;96837.91;;;8.17;74.25
75146;BME280;63641;46.526;24.612;2023-04-03T08:03:11;96832.44;;;8.28;74.09
75146;BME280;63641;46.526;24.612;2023-04-03T08:05:40;96841.56;;;8.37;73.90
75146;BME280;63641;46.526;24.612;2023-04-03T08:08:08;96837.50;;;8.44;73.86
75146;BME280;63641;46.526;24.612;2023-04-03T08:10:35;96851.19;;;8.53;73.63
75146;BME280;63641;46.526;24.612;2023-04-03T08:13:02;96845.25;;;8.56;73.50
75146;BME280;63641;46.526;24.612;2023-04-03T08:15:31;96845.19;;;8.66;73.48
75146;BME280;63641;46.526;24.612;2023-04-03T08:17:59;96851.06;;;8.74;73.19
75146;BME280;63641;46.526;24.612;2023-04-03T08:20:27;96865.84;;;8.81;73.11
75146;BME280;63641;46.526;24.612;2023-04-03T08:22:55;96863.09;;;8.86;72.97
75146;BME280;63641;46.526;24.612;2023-04-03T08:25:21;96861.44;;;8.90;73.19
75146;BME280;63641;46.526;24.612;2023-04-03T08:27:48;96865.19;;;8.94;72.80
75146;BME280;63641;46.526;24.612;2023-04-03T08:30:15;96865.41;;;9.03;72.50
75146;BME280;63641;46.526;24.612;2023-04-03T08:32:42;96855.47;;;8.99;72.47
75146;BME280;63641;46.526;24.612;2023-04-03T08:35:10;96870.25;;;9.06;72.41
75146;BME280;63641;46.526;24.612;2023-04-03T08:37:38;96869.63;;;9.14;72.39
75146;BME280;63641;46.526;24.612;2023-04-03T08:40:08;96865.81;;;9.21;72.38
75146;BME280;63641;46.526;24.612;2023-04-03T08:47:55;96860.31;;;9.31;71.73
75146;BME280;63641;46.526;24.612;2023-04-03T08:50:37;96855.16;;;9.34;71.46
75146;BME280;63641;46.526;24.612;2023-04-03T08:53:12;96854.75;;;9.46;71.35
75146;BME280;63641;46.526;24.612;2023-04-03T08:55:44;96859.78;;;9.58;71.28
75146;BME280;63641;46.526;24.612;2023-04-03T08:58:22;96862.09;;;9.70;71.07
75146;BME280;63641;46.526;24.612;2023-04-03T09:01:00;96866.00;;;9.82;70.83
75146;BME280;63641;46.526;24.612;2023-04-03T09:03:35;96865.16;;;9.87;70.66
75146;BME280;63641;46.526;24.612;2023-04-03T09:06:06;96859.69;;;9.92;70.39
75146;BME280;63641;46.526;24.612;2023-04-03T09:12:12;96877.22;;;9.95;70.27
75146;BME280;63641;46.526;24.612;2023-04-03T09:20:09;96879.31;;;9.98;69.77
75146;BME280;63641;46.526;24.612;2023-04-03T09:22:46;96881.00;;;9.93;69.86
75146;BME280;63641;46.526;24.612;2023-04-03T09:27:48;96878.72;;;10.06;69.54
75146;BME280;63641;46.526;24.612;2023-04-03T09:30:23;96880.88;;;10.04;69.35
75146;BME280;63641;46.526;24.612;2023-04-03T09:32:53;96875.94;;;10.11;69.23
75146;BME280;63641;46.526;24.612;2023-04-03T09:35:34;96885.31;;;10.19;69.21
75146;BME280;63641;46.526;24.612;2023-04-03T09:38:17;96890.94;;;10.22;68.97
75146;BME280;63641;46.526;24.612;2023-04-03T09:40:45;96896.34;;;10.22;68.81
75146;BME280;63641;46.526;24.612;2023-04-03T09:43:28;96896.69;;;10.15;68.77
75146;BME280;63641;46.526;24.612;2023-04-03T09:48:56;96890.78;;;10.13;68.93
75146;BME280;63641;46.526;24.612;2023-04-03T09:51:34;96896.88;;;10.24;68.67
75146;BME280;63641;46.526;24.612;2023-04-03T09:57:00;96902.81;;;10.26;68.47
75146;BME280;63641;46.526;24.612;2023-04-03T09:59:29;96899.59;;;10.24;68.49
75146;BME280;63641;46.526;24.612;2023-04-03T10:02:00;96895.81;;;10.25;68.75
75146;BME280;63641;46.526;24.612;2023-04-03T10:04:40;96894.34;;;10.33;68.32
75146;BME280;63641;46.526;24.612;2023-04-03T10:07:35;96895.03;;;10.44;68.29
75146;BME280;63641;46.526;24.612;2023-04-03T10:10:17;96883.06;;;10.50;68.17
75146;BME280;63641;46.526;24.612;2023-04-03T10:12:47;96892.13;;;10.59;68.00
75146;BME280;63641;46.526;24.612;2023-04-03T10:15:16;96894.75;;;10.64;67.79
75146;BME280;63641;46.526;24.612;2023-04-03T10:18:02;96881.75;;;10.66;67.80
75146;BME280;63641;46.526;24.612;2023-04-03T10:20:48;96891.91;;;10.74;67.40
75146;BME280;63641;46.526;24.612;2023-04-03T10:23:54;96897.41;;;10.69;67.40
75146;BME280;63641;46.526;24.612;2023-04-03T10:26:41;96891.91;;;10.74;67.18
75146;BME280;63641;46.526;24.612;2023-04-03T10:29:34;96888.03;;;10.80;67.11
75146;BME280;63641;46.526;24.612;2023-04-03T10:32:26;96892.56;;;10.85;67.28
75146;BME280;63641;46.526;24.612;2023-04-03T10:46:13;96870.72;;;11.14;66.51
75146;BME280;63641;46.526;24.612;2023-04-03T10:51:48;96865.22;;;11.19;66.30
75146;BME280;63641;46.526;24.612;2023-04-03T10:54:30;96852.19;;;11.21;66.23
75146;BME280;63641;46.526;24.612;2023-04-03T10:57:05;96868.28;;;11.31;66.18
75146;BME280;63641;46.526;24.612;2023-04-03T10:59:43;96854.44;;;11.33;66.00
75146;BME280;63641;46.526;24.612;2023-04-03T11:04:40;96850.06;;;11.51;65.47
75146;BME280;63641;46.526;24.612;2023-04-03T11:07:20;96852.06;;;11.59;65.33
75146;BME280;63641;46.526;24.612;2023-04-03T11:09:55;96836.00;;;11.63;65.29
75146;BME280;63641;46.526;24.612;2023-04-03T11:12:36;96845.78;;;11.64;65.04
75146;BME280;63641;46.526;24.612;2023-04-03T11:15:05;96838.34;;;11.69;65.01
75146;BME280;63641;46.526;24.612;2023-04-03T11:17:43;96838.44;;;11.78;64.61
75146;BME280;63641;46.526;24.612;2023-04-03T11:20:26;96833.84;;;11.78;64.30
75146;BME280;63641;46.526;24.612;2023-04-03T11:23:44;96822.78;;;11.75;64.20
75146;BME280;63641;46.526;24.612;2023-04-03T11:26:13;96825.22;;;11.90;64.13
75146;BME280;63641;46.526;24.612;2023-04-03T11:28:41;96824.72;;;12.02;63.97
75146;BME280;63641;46.526;24.612;2023-04-03T11:34:42;96820.34;;;12.28;63.04
75146;BME280;63641;46.526;24.612;2023-04-03T11:37:38;96818.16;;;12.30;62.84
75146;BME280;63641;46.526;24.612;2023-04-03T11:40:19;96819.56;;;12.28;62.77
75146;BME280;63641;46.526;24.612;2023-04-03T11:42:51;96818.06;;;12.22;62.48
75146;BME280;63641;46.526;24.612;2023-04-03T11:47:56;96826.97;;;12.36;62.76
75146;BME280;63641;46.526;24.612;2023-04-03T11:50:40;96816.50;;;12.43;62.39
75146;BME280;63641;46.526;24.612;2023-04-03T11:55:41;96824.47;;;12.26;62.40
75146;BME280;63641;46.526;24.612;2023-04-03T11:58:20;96805.72;;;12.16;62.31
75146;BME280;63641;46.526;24.612;2023-04-03T12:01:07;96807.03;;;12.04;62.26
75146;BME280;63641;46.526;24.612;2023-04-03T12:16:42;96793.91;;;11.98;61.97
75146;BME280;63641;46.526;24.612;2023-04-03T12:29:29;96789.09;;;12.67;60.21
75146;BME280;63641;46.526;24.612;2023-04-03T12:34:49;96790.75;;;12.54;60.28
75146;BME280;63641;46.526;24.612;2023-04-03T12:40:43;96778.31;;;12.40;60.46
75146;BME280;63641;46.526;24.612;2023-04-03T12:43:24;96767.69;;;12.29;60.52
75146;BME280;63641;46.526;24.612;2023-04-03T12:48:39;96762.41;;;12.24;60.51
75146;BME280;63641;46.526;24.612;2023-04-03T12:51:22;96764.59;;;12.22;60.36
75146;BME280;63641;46.526;24.612;2023-04-03T12:54:00;96761.09;;;12.22;60.07
75146;BME280;63641;46.526;24.612;2023-04-03T12:56:28;96753.28;;;12.20;59.97
75146;BME280;63641;46.526;24.612;2023-04-03T12:59:20;96752.28;;;12.16;60.07
75146;BME280;63641;46.526;24.612;2023-04-03T13:01:58;96753.41;;;12.15;60.08
75146;BME280;63641;46.526;24.612;2023-04-03T13:04:27;96749.06;;;12.14;60.07
75146;BME280;63641;46.526;24.612;2023-04-03T13:06:54;96750.19;;;12.13;60.21
75146;BME280;63641;46.526;24.612;2023-04-03T13:09:26;96747.47;;;12.13;60.17
75146;BME280;63641;46.526;24.612;2023-04-03T13:14:37;96742.22;;;12.17;60.10
75146;BME280;63641;46.526;24.612;2023-04-03T13:19:30;96747.25;;;12.23;59.97
75146;BME280;63641;46.526;24.612;2023-04-03T13:22:12;96745.00;;;12.25;59.74
75146;BME280;63641;46.526;24.612;2023-04-03T13:24:47;96741.41;;;12.30;59.55
75146;BME280;63641;46.526;24.612;2023-04-03T13:27:16;96743.78;;;12.31;59.48
75146;BME280;63641;46.526;24.612;2023-04-03T13:29:48;96739.97;;;12.32;59.49
75146;BME280;63641;46.526;24.612;2023-04-03T13:32:23;96741.22;;;12.26;59.56
75146;BME280;63641;46.526;24.612;2023-04-03T13:34:51;96748.31;;;12.22;59.78
75146;BME280;63641;46.526;24.612;2023-04-03T13:37:30;96739.72;;;12.20;59.70
75146;BME280;63641;46.526;24.612;2023-04-03T13:42:37;96739.19;;;12.18;59.59
75146;BME280;63641;46.526;24.612;2023-04-03T13:45:23;96744.63;;;12.18;59.55
75146;BME280;63641;46.526;24.612;2023-04-03T13:48:06;96743.81;;;12.18;59.55
75146;BME280;63641;46.526;24.612;2023-04-03T13:51:18;96733.19;;;12.07;59.66
75146;BME280;63641;46.526;24.612;2023-04-03T13:53:53;96743.81;;;12.18;59.79
75146;BME280;63641;46.526;24.612;2023-04-03T13:56:36;96739.72;;;12.20;59.46
75146;BME280;63641;46.526;24.612;2023-04-03T14:02:10;96748.84;;;12.24;59.64
75146;BME280;63641;46.526;24.612;2023-04-03T14:04:46;96745.00;;;12.25;59.67
75146;BME280;63641;46.526;24.612;2023-04-03T14:07:16;96747.34;;;12.18;59.55
75146;BME280;63641;46.526;24.612;2023-04-03T14:09:44;96758.50;;;12.17;59.26
75146;BME280;63641;46.526;24.612;2023-04-03T14:12:37;96762.75;;;12.09;59.66
75146;BME280;63641;46.526;24.612;2023-04-03T14:15:07;96760.13;;;12.04;59.71
75146;BME280;63641;46.526;24.612;2023-04-03T14:17:38;96766.06;;;12.06;59.62
75146;BME280;63641;46.526;24.612;2023-04-03T14:20:06;96767.47;;;12.03;59.64
75146;BME280;63641;46.526;24.612;2023-04-03T14:22:34;96759.63;;;12.02;59.55
75146;BME280;63641;46.526;24.612;2023-04-03T14:25:02;96767.66;;;12.07;59.62
75146;BME280;63641;46.526;24.612;2023-04-03T14:27:34;96766.75;;;12.12;59.77
75146;BME280;63641;46.526;24.612;2023-04-03T14:30:02;96752.28;;;12.16;59.75
75146;BME280;63641;46.526;24.612;2023-04-03T14:32:30;96757.09;;;12.19;59.69
75146;BME280;63641;46.526;24.612;2023-04-03T14:34:57;96761.88;;;12.22;59.67
75146;BME280;63641;46.526;24.612;2023-04-03T14:37:27;96755.66;;;12.22;59.66
75146;BME280;63641;46.526;24.612;2023-04-03T14:39:57;96750.06;;;12.18;59.66
75146;BME280;63641;46.526;24.612;2023-04-03T14:42:30;96749.75;;;12.20;59.69
75146;BME280;63641;46.526;24.612;2023-04-03T14:44:58;96740.81;;;12.19;59.70
75146;BME280;63641;46.526;24.612;2023-04-03T14:47:28;96740.31;;;12.17;59.70
75146;BME280;63641;46.526;24.612;2023-04-03T14:50:02;96747.66;;;12.17;59.97